sensor_id;sensor_type;location;lat;lon;timestamp;pressure;altitude;pressure_sealevel;temperature;humidity
71567;BME280;59403;47.456;19.120;2023-01-31T13:44:01;100586.53;;;5.26;68.81
71567;BME280;59403;47.456;19.120;2023-01-31T13:46:32;100596.53;;;5.32;69.92
71567;BME280;59403;47.456;19.120;2023-01-31T13:49:04;100602.66;;;5.33;68.87
71567;BME280;59403;47.456;19.120;2023-01-31T13:51:35;100604.75;;;5.17;69.89
71567;BME280;59403;47.456;19.120;2023-01-31T13:54:07;100613.22;;;5.09;69.35
71567;BME280;59403;47.456;19.120;2023-01-31T13:56:40;100611.69;;;5.07;70.28
71567;BME280;59403;47.456;19.120;2023-01-31T13:59:09;100614.66;;;5.13;70.18
71567;BME280;59403;47.456;19.120;2023-01-31T14:01:43;100618.47;;;5.09;70.69
71567;BME280;59403;47.456;19.120;2023-01-31T14:04:27;100613.06;;;4.89;68.63
71567;BME280;59403;47.456;19.120;2023-01-31T14:07:21;100613.41;;;4.84;69.63
71567;BME280;59403;47.456;19.120;2023-01-31T14:10:24;100620.31;;;4.85;68.97
71567;BME280;59403;47.456;19.120;2023-01-31T14:13:29;100618.66;;;4.84;68.75
71567;BME280;59403;47.456;19.120;2023-01-31T14:16:34;100617.81;;;4.84;69.01
71567;BME280;59403;47.456;19.120;2023-01-31T14:19:01;100618.53;;;4.86;70.03
71567;BME280;59403;47.456;19.120;2023-01-31T14:21:53;100618.31;;;4.89;70.09
71567;BME280;59403;47.456;19.120;2023-01-31T14:27:41;100615.88;;;4.75;71.37
71567;BME280;59403;47.456;19.120;2023-01-31T14:33:03;100618.50;;;4.75;72.59
71567;BME280;59403;47.456;19.120;2023-01-31T14:35:49;100619.31;;;4.64;73.66
71567;BME280;59403;47.456;19.120;2023-01-31T14:38:30;100622.12;;;4.50;74.92
71567;BME280;59403;47.456;19.120;2023-01-31T14:41:08;100616.59;;;4.42;76.45
71567;BME280;59403;47.456;19.120;2023-01-31T14:43:48;100613.47;;;4.37;77.51
71567;BME280;59403;47.456;19.120;2023-01-31T14:46:39;100616.94;;;4.37;77.01
71567;BME280;59403;47.456;19.120;2023-01-31T14:52:21;100619.63;;;4.25;78.91
71567;BME280;59403;47.456;19.120;2023-01-31T14:55:06;100613.53;;;4.24;79.26
71567;BME280;59403;47.456;19.120;2023-01-31T14:57:40;100625.41;;;4.17;80.74
71567;BME280;59403;47.456;19.120;2023-01-31T15:00:18;100621.97;;;4.17;82.74
71567;BME280;59403;47.456;19.120;2023-01-31T15:02:50;100615.88;;;4.16;83.96
71567;BME280;59403;47.456;19.120;2023-01-31T15:05:24;100616.31;;;4.10;85.26
71567;BME280;59403;47.456;19.120;2023-01-31T15:08:29;100615.69;;;4.07;85.89
71567;BME280;59403;47.456;19.120;2023-01-31T15:10:58;100620.81;;;4.08;86.54
71567;BME280;59403;47.456;19.120;2023-01-31T15:13:39;100615.00;;;4.05;87.19
71567;BME280;59403;47.456;19.120;2023-01-31T15:16:15;100610.47;;;4.07;86.52
71567;BME280;59403;47.456;19.120;2023-01-31T15:18:45;100611.41;;;4.06;87.11
71567;BME280;59403;47.456;19.120;2023-01-31T15:21:20;100614.38;;;4.01;87.64
71567;BME280;59403;47.456;19.120;2023-01-31T15:23:49;100618.53;;;4.04;86.90
71567;BME280;59403;47.456;19.120;2023-01-31T15:26:18;100624.63;;;4.04;86.69
71567;BME280;59403;47.456;19.120;2023-01-31T15:28:46;100642.84;;;4.06;87.30
71567;BME280;59403;47.456;19.120;2023-01-31T15:31:19;100623.28;;;3.99;87.22
71567;BME280;59403;47.456;19.120;2023-01-31T15:33:50;100625.81;;;3.88;89.25
71567;BME280;59403;47.456;19.120;2023-01-31T15:36:24;100644.50;;;3.83;92.61
71567;BME280;59403;47.456;19.120;2023-01-31T15:38:55;100590.28;;;3.47;92.16
71567;BME280;59403;47.456;19.120;2023-01-31T15:41:23;100642.41;;;3.76;93.54
71567;BME280;59403;47.456;19.120;2023-01-31T15:43:55;100646.72;;;3.77;92.80
71567;BME280;59403;47.456;19.120;2023-01-31T15:46:40;100652.75;;;3.77;92.51
71567;BME280;59403;47.456;19.120;2023-01-31T15:49:21;100642.50;;;3.74;92.65
71567;BME280;59403;47.456;19.120;2023-01-31T15:52:08;100644.50;;;3.71;93.77
71567;BME280;59403;47.456;19.120;2023-01-31T15:54:35;100639.03;;;3.74;94.21
71567;BME280;59403;47.456;19.120;2023-01-31T15:57:03;100644.28;;;3.74;94.07
71567;BME280;59403;47.456;19.120;2023-01-31T15:59:33;100639.16;;;3.72;94.77
71567;BME280;59403;47.456;19.120;2023-01-31T16:02:02;100641.78;;;3.72;95.36
71567;BME280;59403;47.456;19.120;2023-01-31T16:04:30;100641.78;;;3.72;95.26
71567;BME280;59403;47.456;19.120;2023-01-31T16:06:57;100645.56;;;3.68;95.88
71567;BME280;59403;47.456;19.120;2023-01-31T16:09:28;100646.09;;;3.73;94.84
71567;BME280;59403;47.456;19.120;2023-01-31T16:11:57;100647.25;;;3.69;95.35
71567;BME280;59403;47.456;19.120;2023-01-31T16:14:24;100635.34;;;3.53;95.39
71567;BME280;59403;47.456;19.120;2023-01-31T16:16:53;100653.50;;;3.67;94.94
71567;BME280;59403;47.456;19.120;2023-01-31T16:19:24;100643.25;;;3.64;95.65
71567;BME280;59403;47.456;19.120;2023-01-31T16:21:53;100634.38;;;3.54;94.79
71567;BME280;59403;47.456;19.120;2023-01-31T16:24:22;100653.72;;;3.64;95.74
71567;BME280;59403;47.456;19.120;2023-01-31T16:26:56;100650.50;;;3.60;95.83
71567;BME280;59403;47.456;19.120;2023-01-31T16:29:32;100656.06;;;3.56;96.45
71567;BME280;59403;47.456;19.120;2023-01-31T16:32:14;100653.97;;;3.61;95.84
71567;BME280;59403;47.456;19.120;2023-01-31T16:34:41;100652.38;;;3.58;96.47
71567;BME280;59403;47.456;19.120;2023-01-31T16:37:11;100653.97;;;3.61;95.45
71567;BME280;59403;47.456;19.120;2023-01-31T16:39:41;100660.34;;;3.57;96.47
71567;BME280;59403;47.456;19.120;2023-01-31T16:42:22;100654.47;;;3.53;96.40
71567;BME280;59403;47.456;19.120;2023-01-31T16:44:50;100645.25;;;3.47;96.51
71567;BME280;59403;47.456;19.120;2023-01-31T16:47:32;100648.09;;;3.44;97.22
71567;BME280;59403;47.456;19.120;2023-01-31T16:50:28;100659.75;;;3.40;97.89
71567;BME280;59403;47.456;19.120;2023-01-31T16:53:07;100653.97;;;3.35;97.66
71567;BME280;59403;47.456;19.120;2023-01-31T16:55:40;100655.94;;;3.32;98.19
71567;BME280;59403;47.456;19.120;2023-01-31T17:00:36;100656.59;;;3.23;98.67
71567;BME280;59403;47.456;19.120;2023-01-31T17:03:12;100663.72;;;3.21;99.69
71567;BME280;59403;47.456;19.120;2023-01-31T17:05:43;100660.66;;;3.27;98.69
71567;BME280;59403;47.456;19.120;2023-01-31T17:08:14;100661.91;;;3.34;96.63
71567;BME280;59403;47.456;19.120;2023-01-31T17:10:43;100663.50;;;3.36;95.90
71567;BME280;59403;47.456;19.120;2023-01-31T17:15:39;100657.94;;;3.41;95.42
71567;BME280;59403;47.456;19.120;2023-01-31T17:18:08;100655.09;;;3.44;95.15
71567;BME280;59403;47.456;19.120;2023-01-31T17:20:35;100649.78;;;3.45;94.67
71567;BME280;59403;47.456;19.120;2023-01-31T17:23:04;100655.03;;;3.45;94.60
71567;BME280;59403;47.456;19.120;2023-01-31T17:25:33;100658.69;;;3.43;94.44
71567;BME280;59403;47.456;19.120;2023-01-31T17:28:01;100662.25;;;3.42;94.44
71567;BME280;59403;47.456;19.120;2023-01-31T17:30:28;100653.87;;;3.37;96.67
71567;BME280;59403;47.456;19.120;2023-01-31T17:32:58;100658.50;;;3.33;98.16
71567;BME280;59403;47.456;19.120;2023-01-31T17:35:26;100652.69;;;3.28;98.71
71567;BME280;59403;47.456;19.120;2023-01-31T17:37:57;100655.66;;;3.24;99.21
71567;BME280;59403;47.456;19.120;2023-01-31T17:40:24;100652.00;;;3.26;99.26
71567;BME280;59403;47.456;19.120;2023-01-31T17:42:53;100656.38;;;3.26;98.93
71567;BME280;59403;47.456;19.120;2023-01-31T17:45:20;100649.56;;;3.23;99.71
71567;BME280;59403;47.456;19.120;2023-01-31T17:47:47;100648.94;;;3.20;99.42
71567;BME280;59403;47.456;19.120;2023-01-31T17:50:17;100645.41;;;3.21;99.48
71567;BME280;59403;47.456;19.120;2023-01-31T17:52:44;100647.78;;;3.24;99.10
71567;BME280;59403;47.456;19.120;2023-01-31T17:55:11;100643.50;;;3.23;99.12
71567;BME280;59403;47.456;19.120;2023-01-31T17:57:39;100648.84;;;3.21;98.95
71567;BME280;59403;47.456;19.120;2023-01-31T18:00:07;100648.84;;;3.21;98.95
71567;BME280;59403;47.456;19.120;2023-01-31T18:02:36;100641.94;;;3.20;98.78
71567;BME280;59403;47.456;19.120;2023-01-31T18:05:07;100649.78;;;3.20;98.91
71567;BME280;59403;47.456;19.120;2023-01-31T18:07:35;100649.88;;;3.19;98.63
71567;BME280;59403;47.456;19.120;2023-01-31T18:10:03;100645.50;;;3.19;98.59
71567;BME280;59403;47.456;19.120;2023-01-31T18:12:31;100641.19;;;3.18;98.45
71567;BME280;59403;47.456;19.120;2023-01-31T18:14:59;100635.34;;;3.15;98.93
71567;BME280;59403;47.456;19.120;2023-01-31T18:17:26;100632.72;;;3.15;98.96
71567;BME280;59403;47.456;19.120;2023-01-31T18:19:53;100637.03;;;3.16;98.05
71567;BME280;59403;47.456;19.120;2023-01-31T18:22:20;100630.22;;;3.13;98.40
71567;BME280;59403;47.456;19.120;2023-01-31T18:24:49;100628.66;;;3.11;99.22
71567;BME280;59403;47.456;19.120;2023-01-31T18:27:16;100641.09;;;3.07;99.04
71567;BME280;59403;47.456;19.120;2023-01-31T18:29:42;100637.53;;;3.08;99.87
71567;BME280;59403;47.456;19.120;2023-01-31T18:32:09;100638.38;;;3.09;99.68
71567;BME280;59403;47.456;19.120;2023-01-31T18:34:36;100631.56;;;3.06;100.00
71567;BME280;59403;47.456;19.120;2023-01-31T18:37:07;100632.41;;;3.07;100.00
71567;BME280;59403;47.456;19.120;2023-01-31T18:39:41;100624.66;;;3.05;100.00
71567;BME280;59403;47.456;19.120;2023-01-31T18:42:09;100629.16;;;3.03;100.00
71567;BME280;59403;47.456;19.120;2023-01-31T18:44:36;100629.25;;;3.02;100.00
71567;BME280;59403;47.456;19.120;2023-01-31T18:47:03;100632.63;;;3.04;100.00
71567;BME280;59403;47.456;19.120;2023-01-31T18:49:30;100623.94;;;3.03;100.00
71567;BME280;59403;47.456;19.120;2023-01-31T18:51:57;100631.88;;;3.02;100.00
71567;BME280;59403;47.456;19.120;2023-01-31T18:54:24;100637.13;;;3.02;99.91
71567;BME280;59403;47.456;19.120;2023-01-31T18:56:51;100634.19;;;3.06;99.46
71567;BME280;59403;47.456;19.120;2023-01-31T18:59:19;100632.50;;;3.05;99.07
71567;BME280;59403;47.456;19.120;2023-01-31T19:01:46;100638.66;;;3.04;98.98
71567;BME280;59403;47.456;19.120;2023-01-31T19:04:13;100633.44;;;3.04;98.80
71567;BME280;59403;47.456;19.120;2023-01-31T19:06:40;100630.81;;;3.04;98.91
71567;BME280;59403;47.456;19.120;2023-01-31T19:09:08;100645.69;;;3.04;98.66
71567;BME280;59403;47.456;19.120;2023-01-31T19:11:35;100634.69;;;3.11;96.57
71567;BME280;59403;47.456;19.120;2023-01-31T19:14:02;100637.53;;;3.08;97.49
71567;BME280;59403;47.456;19.120;2023-01-31T19:16:34;100641.81;;;3.09;97.18
71567;BME280;59403;47.456;19.120;2023-01-31T19:19:02;100635.75;;;3.09;97.64
71567;BME280;59403;47.456;19.120;2023-01-31T19:21:30;100637.44;;;3.22;95.49
71567;BME280;59403;47.456;19.120;2023-01-31T19:24:03;100643.63;;;3.21;94.30
71567;BME280;59403;47.456;19.120;2023-01-31T19:26:46;100646.44;;;3.31;93.04
71567;BME280;59403;47.456;19.120;2023-01-31T19:29:14;100645.69;;;3.29;93.81
71567;BME280;59403;47.456;19.120;2023-01-31T19:31:42;100641.19;;;3.31;93.77
71567;BME280;59403;47.456;19.120;2023-01-31T19:34:09;100649.69;;;3.34;93.37
71567;BME280;59403;47.456;19.120;2023-01-31T19:36:38;100637.63;;;3.44;92.17
71567;BME280;59403;47.456;19.120;2023-01-31T19:39:07;100628.75;;;3.47;92.19
71567;BME280;59403;47.456;19.120;2023-01-31T19:41:34;100621.50;;;3.63;90.12
71567;BME280;59403;47.456;19.120;2023-01-31T19:44:01;100628.91;;;3.57;91.66
71567;BME280;59403;47.456;19.120;2023-01-31T19:46:30;100614.03;;;3.70;89.37
71567;BME280;59403;47.456;19.120;2023-01-31T19:48:59;100623.87;;;3.79;87.92
71567;BME280;59403;47.456;19.120;2023-01-31T19:51:26;100623.31;;;3.86;86.69
71567;BME280;59403;47.456;19.120;2023-01-31T19:53:54;100633.50;;;3.78;88.09
71567;BME280;59403;47.456;19.120;2023-01-31T19:56:26;100631.19;;;3.74;89.08
71567;BME280;59403;47.456;19.120;2023-01-31T19:58:53;100629.53;;;3.73;88.83
71567;BME280;59403;47.456;19.120;2023-01-31T20:01:20;100624.63;;;3.68;89.81
71567;BME280;59403;47.456;19.120;2023-01-31T20:03:47;100618.03;;;3.63;91.41
71567;BME280;59403;47.456;19.120;2023-01-31T20:06:17;100615.09;;;3.55;92.50
71567;BME280;59403;47.456;19.120;2023-01-31T20:08:48;100621.28;;;3.54;93.28
71567;BME280;59403;47.456;19.120;2023-01-31T20:11:15;100623.16;;;3.52;93.42
71567;BME280;59403;47.456;19.120;2023-01-31T20:13:42;100625.28;;;3.46;94.61
71567;BME280;59403;47.456;19.120;2023-01-31T20:16:10;100622.25;;;3.40;95.75
71567;BME280;59403;47.456;19.120;2023-01-31T20:18:38;100628.75;;;3.34;96.43
71567;BME280;59403;47.456;19.120;2023-01-31T20:21:07;100612.81;;;3.37;96.18
71567;BME280;59403;47.456;19.120;2023-01-31T20:23:35;100610.63;;;3.31;97.04
71567;BME280;59403;47.456;19.120;2023-01-31T20:26:02;100609.28;;;3.26;98.30
71567;BME280;59403;47.456;19.120;2023-01-31T20:28:29;100607.59;;;3.25;99.00
71567;BME280;59403;47.456;19.120;2023-01-31T20:31:02;100612.81;;;3.25;98.70
71567;BME280;59403;47.456;19.120;2023-01-31T20:33:29;100623.50;;;3.22;99.43
71567;BME280;59403;47.456;19.120;2023-01-31T20:35:56;100626.44;;;3.17;100.00
71567;BME280;59403;47.456;19.120;2023-01-31T20:38:23;100629.47;;;3.11;100.00
71567;BME280;59403;47.456;19.120;2023-01-31T20:40:53;100626.44;;;3.05;100.00
71567;BME280;59403;47.456;19.120;2023-01-31T20:43:22;100631.47;;;2.95;100.00
71567;BME280;59403;47.456;19.120;2023-01-31T20:46:04;100634.47;;;2.89;100.00
71567;BME280;59403;47.456;19.120;2023-01-31T20:48:32;100630.50;;;2.84;100.00
71567;BME280;59403;47.456;19.120;2023-01-31T20:50:59;100633.53;;;2.78;100.00
71567;BME280;59403;47.456;19.120;2023-01-31T20:53:27;100621.47;;;2.75;100.00
71567;BME280;59403;47.456;19.120;2023-01-31T20:55:57;100621.91;;;2.69;100.00
71567;BME280;59403;47.456;19.120;2023-01-31T20:58:24;100611.62;;;2.66;100.00
71567;BME280;59403;47.456;19.120;2023-01-31T21:00:52;100605.88;;;2.61;100.00
71567;BME280;59403;47.456;19.120;2023-01-31T21:03:20;100610.25;;;2.61;100.00
71567;BME280;59403;47.456;19.120;2023-01-31T21:05:47;100602.50;;;2.59;100.00
71567;BME280;59403;47.456;19.120;2023-01-31T21:08:14;100608.06;;;2.55;100.00
71567;BME280;59403;47.456;19.120;2023-01-31T21:10:48;100600.31;;;2.53;100.00
71567;BME280;59403;47.456;19.120;2023-01-31T21:13:16;100580.00;;;2.44;100.00
71567;BME280;59403;47.456;19.120;2023-01-31T21:15:49;100588.38;;;2.49;100.00
71567;BME280;59403;47.456;19.120;2023-01-31T21:18:16;100584.09;;;2.48;100.00
71567;BME280;59403;47.456;19.120;2023-01-31T21:20:43;100590.38;;;2.46;100.00
71567;BME280;59403;47.456;19.120;2023-01-31T21:23:10;100584.50;;;2.42;100.00
71567;BME280;59403;47.456;19.120;2023-01-31T21:25:37;100582.09;;;2.39;100.00
71567;BME280;59403;47.456;19.120;2023-01-31T21:28:04;100573.50;;;2.37;100.00
71567;BME280;59403;47.456;19.120;2023-01-31T21:30:32;100570.16;;;2.35;100.00
71567;BME280;59403;47.456;19.120;2023-01-31T21:32:59;100574.66;;;2.33;100.00
71567;BME280;59403;47.456;19.120;2023-01-31T21:35:26;100571.12;;;2.34;100.00
71567;BME280;59403;47.456;19.120;2023-01-31T21:37:53;100572.78;;;2.35;100.00
71567;BME280;59403;47.456;19.120;2023-01-31T21:40:23;100568.50;;;2.34;100.00
71567;BME280;59403;47.456;19.120;2023-01-31T21:42:50;100562.44;;;2.33;100.00
71567;BME280;59403;47.456;19.120;2023-01-31T21:45:17;100569.41;;;2.33;100.00
71567;BME280;59403;47.456;19.120;2023-01-31T21:48:06;100566.16;;;2.29;100.00
71567;BME280;59403;47.456;19.120;2023-01-31T21:50:50;100560.22;;;2.27;100.00
71567;BME280;59403;47.456;19.120;2023-01-31T21:53:17;100562.91;;;2.26;100.00
71567;BME280;59403;47.456;19.120;2023-01-31T21:55:44;100559.37;;;2.27;100.00
71567;BME280;59403;47.456;19.120;2023-01-31T21:58:11;100562.22;;;2.24;100.00
71567;BME280;59403;47.456;19.120;2023-01-31T22:00:38;100568.25;;;2.24;100.00
71567;BME280;59403;47.456;19.120;2023-01-31T22:03:09;100562.09;;;2.25;100.00
71567;BME280;59403;47.456;19.120;2023-01-31T22:05:36;100557.81;;;2.24;100.00
71567;BME280;59403;47.456;19.120;2023-01-31T22:08:03;100560.31;;;2.26;100.00
71567;BME280;59403;47.456;19.120;2023-01-31T22:10:30;100561.25;;;2.25;100.00
71567;BME280;59403;47.456;19.120;2023-01-31T22:12:57;100564.72;;;2.25;100.00
71567;BME280;59403;47.456;19.120;2023-01-31T22:15:24;100568.06;;;2.27;100.00
71567;BME280;59403;47.456;19.120;2023-01-31T22:17:51;100561.06;;;2.28;100.00
71567;BME280;59403;47.456;19.120;2023-01-31T22:20:20;100561.06;;;2.28;100.00
71567;BME280;59403;47.456;19.120;2023-01-31T22:22:46;100553.22;;;2.28;100.00
71567;BME280;59403;47.456;19.120;2023-01-31T22:25:14;100555.81;;;2.28;100.00
71567;BME280;59403;47.456;19.120;2023-01-31T22:27:41;100550.16;;;2.21;100.00
71567;BME280;59403;47.456;19.120;2023-01-31T22:30:09;100562.00;;;2.27;100.00
71567;BME280;59403;47.456;19.120;2023-01-31T22:32:36;100568.06;;;2.27;100.00
71567;BME280;59403;47.456;19.120;2023-01-31T22:35:03;100564.28;;;2.31;100.00
71567;BME280;59403;47.456;19.120;2023-01-31T22:37:31;100556.56;;;2.30;100.00
71567;BME280;59403;47.456;19.120;2023-01-31T22:39:58;100543.81;;;2.25;100.00
71567;BME280;59403;47.456;19.120;2023-01-31T22:42:25;100550.22;;;2.34;100.00
71567;BME280;59403;47.456;19.120;2023-01-31T22:44:52;100546.84;;;2.32;100.00
71567;BME280;59403;47.456;19.120;2023-01-31T22:47:19;100546.75;;;2.33;100.00
71567;BME280;59403;47.456;19.120;2023-01-31T22:49:46;100539.75;;;2.34;100.00
71567;BME280;59403;47.456;19.120;2023-01-31T22:52:13;100534.44;;;2.36;100.00
71567;BME280;59403;47.456;19.120;2023-01-31T22:54:41;100535.16;;;2.38;100.00
71567;BME280;59403;47.456;19.120;2023-01-31T22:57:08;100525.44;;;2.40;100.00
71567;BME280;59403;47.456;19.120;2023-01-31T22:59:35;100529.72;;;2.41;100.00
71567;BME280;59403;47.456;19.120;2023-01-31T23:02:02;100519.78;;;2.33;100.00
71567;BME280;59403;47.456;19.120;2023-01-31T23:04:30;100521.87;;;2.41;100.00
71567;BME280;59403;47.456;19.120;2023-01-31T23:10:16;100514.25;;;2.38;100.00
71567;BME280;59403;47.456;19.120;2023-01-31T23:12:43;100505.69;;;2.36;100.00
71567;BME280;59403;47.456;19.120;2023-01-31T23:15:19;100505.06;;;2.32;100.00
71567;BME280;59403;47.456;19.120;2023-01-31T23:17:46;100482.88;;;2.25;100.00
71567;BME280;59403;47.456;19.120;2023-01-31T23:20:17;100473.03;;;2.16;100.00
71567;BME280;59403;47.456;19.120;2023-01-31T23:23:01;100488.94;;;2.25;100.00
71567;BME280;59403;47.456;19.120;2023-01-31T23:25:31;100491.84;;;2.21;100.00
71567;BME280;59403;47.456;19.120;2023-01-31T23:27:58;100480.87;;;2.16;100.00
71567;BME280;59403;47.456;19.120;2023-01-31T23:30:32;100480.25;;;2.12;100.00
71567;BME280;59403;47.456;19.120;2023-01-31T23:32:59;100505.44;;;2.26;100.00
71567;BME280;59403;47.456;19.120;2023-01-31T23:35:26;100503.78;;;2.25;100.00
71567;BME280;59403;47.456;19.120;2023-01-31T23:37:53;100504.53;;;2.27;100.00
71567;BME280;59403;47.456;19.120;2023-01-31T23:40:20;100508.06;;;2.26;100.00
71567;BME280;59403;47.456;19.120;2023-01-31T23:42:48;100503.69;;;2.26;100.00
71567;BME280;59403;47.456;19.120;2023-01-31T23:45:15;100494.06;;;2.27;100.00
71567;BME280;59403;47.456;19.120;2023-01-31T23:47:45;100492.19;;;2.29;100.00
71567;BME280;59403;47.456;19.120;2023-01-31T23:50:15;100486.34;;;2.25;100.00
71567;BME280;59403;47.456;19.120;2023-01-31T23:52:42;100484.16;;;2.32;100.00
71567;BME280;59403;47.456;19.120;2023-01-31T23:55:33;100476.53;;;2.29;100.00
71567;BME280;59403;47.456;19.120;2023-01-31T23:58:05;100477.97;;;2.33;100.00
